sensor_id;sensor_type;location;lat;lon;timestamp;pressure;altitude;pressure_sealevel;temperature;humidity
20079;BME280;10199;48.850;8.924;2023-11-19T00:00:22;97148.41;;;7.03;100.00
20079;BME280;10199;48.850;8.924;2023-11-19T00:02:52;97135.56;;;7.08;100.00
20079;BME280;10199;48.850;8.924;2023-11-19T00:05:20;97122.22;;;7.10;100.00
20079;BME280;10199;48.850;8.924;2023-11-19T00:07:48;97129.59;;;7.14;100.00
20079;BME280;10199;48.850;8.924;2023-11-19T00:10:17;97119.38;;;7.19;100.00
20079;BME280;10199;48.850;8.924;2023-11-19T00:12:48;97115.59;;;7.22;100.00
20079;BME280;10199;48.850;8.924;2023-11-19T00:15:17;97109.28;;;7.31;100.00
20079;BME280;10199;48.850;8.924;2023-11-19T00:17:47;97100.28;;;7.48;100.00
20079;BME280;10199;48.850;8.924;2023-11-19T00:20:18;97005.00;;;7.15;100.00
20079;BME280;10199;48.850;8.924;2023-11-19T00:22:46;97102.16;;;7.85;100.00
20079;BME280;10199;48.850;8.924;2023-11-19T00:25:15;97105.53;;;7.94;100.00
20079;BME280;10199;48.850;8.924;2023-11-19T00:27:43;97068.91;;;7.84;100.00
20079;BME280;10199;48.850;8.924;2023-11-19T00:30:12;97091.13;;;8.05;100.00
20079;BME280;10199;48.850;8.924;2023-11-19T00:32:41;97080.03;;;8.09;100.00
20079;BME280;10199;48.850;8.924;2023-11-19T00:35:09;97087.03;;;8.17;100.00
20079;BME280;10199;48.850;8.924;2023-11-19T00:37:39;97063.41;;;7.94;100.00
20079;BME280;10199;48.850;8.924;2023-11-19T00:40:10;97084.59;;;8.15;100.00
20079;BME280;10199;48.850;8.924;2023-11-19T00:42:38;97088.84;;;8.16;100.00
20079;BME280;10199;48.850;8.924;2023-11-19T00:45:06;97073.31;;;8.21;100.00
20079;BME280;10199;48.850;8.924;2023-11-19T00:47:36;97064.44;;;8.22;100.00
20079;BME280;10199;48.850;8.924;2023-11-19T00:50:05;97066.69;;;8.25;100.00
20079;BME280;10199;48.850;8.924;2023-11-19T00:52:36;97072.97;;;8.24;100.00
20079;BME280;10199;48.850;8.924;2023-11-19T00:55:06;97067.50;;;8.26;100.00
20079;BME280;10199;48.850;8.924;2023-11-19T00:57:34;96955.38;;;7.50;100.00
20079;BME280;10199;48.850;8.924;2023-11-19T01:00:04;97069.59;;;8.30;100.00
20079;BME280;10199;48.850;8.924;2023-11-19T01:02:37;97040.97;;;8.13;100.00
20079;BME280;10199;48.850;8.924;2023-11-19T01:05:08;97069.59;;;8.30;100.00
20079;BME280;10199;48.850;8.924;2023-11-19T01:07:36;97061.53;;;8.32;100.00
20079;BME280;10199;48.850;8.924;2023-11-19T01:10:07;97064.16;;;8.32;100.00
20079;BME280;10199;48.850;8.924;2023-11-19T01:12:36;97063.09;;;8.41;100.00
20079;BME280;10199;48.850;8.924;2023-11-19T01:15:05;97063.19;;;8.33;100.00
20079;BME280;10199;48.850;8.924;2023-11-19T01:17:33;97064.81;;;8.34;100.00
20079;BME280;10199;48.850;8.924;2023-11-19T01:20:02;96991.94;;;7.82;100.00
20079;BME280;10199;48.850;8.924;2023-11-19T01:22:33;96959.47;;;7.67;100.00
20079;BME280;10199;48.850;8.924;2023-11-19T01:25:01;97055.09;;;8.35;100.00
20079;BME280;10199;48.850;8.924;2023-11-19T01:27:31;97062.47;;;8.39;100.00
20079;BME280;10199;48.850;8.924;2023-11-19T01:30:01;97067.72;;;8.39;100.00
20079;BME280;10199;48.850;8.924;2023-11-19T01:32:30;97063.00;;;8.35;100.00
20079;BME280;10199;48.850;8.924;2023-11-19T01:34:58;97054.38;;;8.41;100.00
20079;BME280;10199;48.850;8.924;2023-11-19T01:37:26;97062.47;;;8.39;100.00
20079;BME280;10199;48.850;8.924;2023-11-19T01:39:54;97064.00;;;8.34;100.00
20079;BME280;10199;48.850;8.924;2023-11-19T01:42:25;97067.72;;;8.39;100.00
20079;BME280;10199;48.850;8.924;2023-11-19T01:44:59;97059.19;;;8.37;100.00
20079;BME280;10199;48.850;8.924;2023-11-19T01:47:28;97059.19;;;8.37;100.00
20079;BME280;10199;48.850;8.924;2023-11-19T01:49:58;97054.56;;;8.39;100.00
20079;BME280;10199;48.850;8.924;2023-11-19T01:52:27;97056.19;;;8.40;100.00
20079;BME280;10199;48.850;8.924;2023-11-19T01:54:55;97055.38;;;8.40;100.00
20079;BME280;10199;48.850;8.924;2023-11-19T01:57:23;97054.19;;;8.42;100.00
20079;BME280;10199;48.850;8.924;2023-11-19T01:59:52;97054.00;;;8.44;100.00
20079;BME280;10199;48.850;8.924;2023-11-19T02:02:22;97051.56;;;8.42;100.00
20079;BME280;10199;48.850;8.924;2023-11-19T02:04:51;97050.72;;;8.42;100.00
20079;BME280;10199;48.850;8.924;2023-11-19T02:07:20;97043.91;;;8.47;100.00
20079;BME280;10199;48.850;8.924;2023-11-19T02:09:48;97041.00;;;8.42;100.00
20079;BME280;10199;48.850;8.924;2023-11-19T02:12:17;97041.47;;;8.46;100.00
20079;BME280;10199;48.850;8.924;2023-11-19T02:14:47;97039.81;;;8.45;100.00
20079;BME280;10199;48.850;8.924;2023-11-19T02:17:28;97034.38;;;8.46;100.00
20079;BME280;10199;48.850;8.924;2023-11-19T02:19:58;97032.56;;;8.47;100.00
20079;BME280;10199;48.850;8.924;2023-11-19T02:22:27;97027.72;;;8.50;100.00
20079;BME280;10199;48.850;8.924;2023-11-19T02:24:59;97031.63;;;8.54;100.00
20079;BME280;10199;48.850;8.924;2023-11-19T02:27:36;97023.34;;;8.57;100.00
20079;BME280;10199;48.850;8.924;2023-11-19T02:30:06;96805.69;;;7.25;100.00
20079;BME280;10199;48.850;8.924;2023-11-19T02:32:35;97022.16;;;8.60;100.00
20079;BME280;10199;48.850;8.924;2023-11-19T02:35:07;97027.44;;;8.60;100.00
20079;BME280;10199;48.850;8.924;2023-11-19T02:37:36;97023.19;;;8.59;100.00
20079;BME280;10199;48.850;8.924;2023-11-19T02:40:05;96985.84;;;8.41;100.00
20079;BME280;10199;48.850;8.924;2023-11-19T02:42:37;97023.44;;;8.64;100.00
20079;BME280;10199;48.850;8.924;2023-11-19T02:45:06;97025.06;;;8.65;100.00
20079;BME280;10199;48.850;8.924;2023-11-19T02:47:34;97033.66;;;8.67;100.00
20079;BME280;10199;48.850;8.924;2023-11-19T02:50:03;97030.44;;;8.72;100.00
20079;BME280;10199;48.850;8.924;2023-11-19T02:52:33;96992.28;;;8.53;100.00
20079;BME280;10199;48.850;8.924;2023-11-19T02:55:04;97027.63;;;8.73;100.00
20079;BME280;10199;48.850;8.924;2023-11-19T02:57:38;97021.91;;;8.55;100.00
20079;BME280;10199;48.850;8.924;2023-11-19T03:00:08;97038.25;;;8.80;100.00
20079;BME280;10199;48.850;8.924;2023-11-19T03:02:40;97036.69;;;8.85;100.00
20079;BME280;10199;48.850;8.924;2023-11-19T03:05:12;97044.59;;;8.85;100.00
20079;BME280;10199;48.850;8.924;2023-11-19T03:07:41;97038.97;;;8.88;100.00
20079;BME280;10199;48.850;8.924;2023-11-19T03:10:13;97044.22;;;8.88;100.00
20079;BME280;10199;48.850;8.924;2023-11-19T03:12:43;97035.50;;;8.88;100.00
20079;BME280;10199;48.850;8.924;2023-11-19T03:15:12;97037.97;;;8.89;100.00
20079;BME280;10199;48.850;8.924;2023-11-19T03:17:40;96992.72;;;8.56;100.00
20079;BME280;10199;48.850;8.924;2023-11-19T03:20:11;97035.94;;;8.91;100.00
20079;BME280;10199;48.850;8.924;2023-11-19T03:22:42;97023.41;;;8.93;100.00
20079;BME280;10199;48.850;8.924;2023-11-19T03:25:10;97028.03;;;8.91;100.00
20079;BME280;10199;48.850;8.924;2023-11-19T03:27:39;96798.31;;;7.50;100.00
20079;BME280;10199;48.850;8.924;2023-11-19T03:30:11;97020.00;;;9.00;100.00
20079;BME280;10199;48.850;8.924;2023-11-19T03:32:39;96822.13;;;7.78;100.00
20079;BME280;10199;48.850;8.924;2023-11-19T03:35:08;97028.56;;;9.02;100.00
20079;BME280;10199;48.850;8.924;2023-11-19T03:37:36;97022.28;;;9.03;100.00
20079;BME280;10199;48.850;8.924;2023-11-19T03:40:05;97025.78;;;9.10;100.00
20079;BME280;10199;48.850;8.924;2023-11-19T03:42:33;96964.63;;;8.63;100.00
20079;BME280;10199;48.850;8.924;2023-11-19T03:45:02;97029.06;;;9.12;100.00
20079;BME280;10199;48.850;8.924;2023-11-19T03:47:32;97027.06;;;9.14;100.00
20079;BME280;10199;48.850;8.924;2023-11-19T03:50:00;97017.13;;;9.16;100.00
20079;BME280;10199;48.850;8.924;2023-11-19T03:52:28;96930.63;;;8.69;100.00
20079;BME280;10199;48.850;8.924;2023-11-19T03:54:56;97001.28;;;9.16;100.00
20079;BME280;10199;48.850;8.924;2023-11-19T03:57:24;96992.38;;;9.17;100.00
20079;BME280;10199;48.850;8.924;2023-11-19T03:59:52;96995.63;;;9.19;100.00
20079;BME280;10199;48.850;8.924;2023-11-19T04:02:23;96996.28;;;9.21;100.00
20079;BME280;10199;48.850;8.924;2023-11-19T04:04:55;96988.47;;;9.13;100.00
20079;BME280;10199;48.850;8.924;2023-11-19T04:07:24;97007.44;;;9.23;100.00
20079;BME280;10199;48.850;8.924;2023-11-19T04:09:52;97008.72;;;9.27;100.00
20079;BME280;10199;48.850;8.924;2023-11-19T04:12:20;97019.44;;;9.25;100.00
20079;BME280;10199;48.850;8.924;2023-11-19T04:14:48;97020.09;;;9.27;100.00
20079;BME280;10199;48.850;8.924;2023-11-19T04:17:26;97006.06;;;9.27;100.00
20079;BME280;10199;48.850;8.924;2023-11-19T04:19:56;97006.25;;;9.25;100.00
20079;BME280;10199;48.850;8.924;2023-11-19T04:22:24;97016.06;;;9.32;100.00
20079;BME280;10199;48.850;8.924;2023-11-19T04:24:53;97024.59;;;9.34;100.00
20079;BME280;10199;48.850;8.924;2023-11-19T04:27:22;97015.69;;;9.35;100.00
20079;BME280;10199;48.850;8.924;2023-11-19T04:29:50;97008.19;;;9.38;100.00
20079;BME280;10199;48.850;8.924;2023-11-19T04:32:18;97008.81;;;9.40;100.00
20079;BME280;10199;48.850;8.924;2023-11-19T04:34:49;97004.56;;;9.61;100.00
20079;BME280;10199;48.850;8.924;2023-11-19T04:37:18;97009.59;;;9.55;100.00
20079;BME280;10199;48.850;8.924;2023-11-19T04:39:46;97005.94;;;9.56;100.00
20079;BME280;10199;48.850;8.924;2023-11-19T04:42:14;96998.38;;;9.53;100.00
20079;BME280;10199;48.850;8.924;2023-11-19T04:44:43;97003.16;;;9.65;100.00
20079;BME280;10199;48.850;8.924;2023-11-19T04:47:11;97004.09;;;9.78;100.00
20079;BME280;10199;48.850;8.924;2023-11-19T04:49:41;97003.16;;;9.93;100.00
20079;BME280;10199;48.850;8.924;2023-11-19T04:52:10;97003.19;;;9.99;100.00
20079;BME280;10199;48.850;8.924;2023-11-19T04:54:42;97015.91;;;10.17;100.00
20079;BME280;10199;48.850;8.924;2023-11-19T04:57:10;97017.59;;;10.25;100.00
20079;BME280;10199;48.850;8.924;2023-11-19T04:59:39;97013.28;;;10.45;100.00
20079;BME280;10199;48.850;8.924;2023-11-19T05:02:08;96980.41;;;10.26;100.00
20079;BME280;10199;48.850;8.924;2023-11-19T05:04:36;96892.69;;;9.68;100.00
20079;BME280;10199;48.850;8.924;2023-11-19T05:07:04;96965.78;;;10.30;100.00
20079;BME280;10199;48.850;8.924;2023-11-19T05:09:33;97014.53;;;10.56;100.00
20079;BME280;10199;48.850;8.924;2023-11-19T05:12:03;97014.34;;;10.57;100.00
20079;BME280;10199;48.850;8.924;2023-11-19T05:14:31;97012.09;;;10.54;100.00
20079;BME280;10199;48.850;8.924;2023-11-19T05:16:59;97023.47;;;10.55;100.00
20079;BME280;10199;48.850;8.924;2023-11-19T05:19:27;97010.91;;;10.63;100.00
20079;BME280;10199;48.850;8.924;2023-11-19T05:21:55;97019.84;;;10.62;100.00
20079;BME280;10199;48.850;8.924;2023-11-19T05:24:23;97019.88;;;10.69;100.00
20079;BME280;10199;48.850;8.924;2023-11-19T05:26:51;97024.38;;;10.75;100.00
20079;BME280;10199;48.850;8.924;2023-11-19T05:29:21;97021.13;;;10.79;100.00
20079;BME280;10199;48.850;8.924;2023-11-19T05:31:49;97011.78;;;10.83;100.00
20079;BME280;10199;48.850;8.924;2023-11-19T05:34:17;97016.25;;;10.76;100.00
20079;BME280;10199;48.850;8.924;2023-11-19T05:36:45;97017.25;;;10.75;100.00
20079;BME280;10199;48.850;8.924;2023-11-19T05:39:13;97003.03;;;10.83;100.00
20079;BME280;10199;48.850;8.924;2023-11-19T05:41:41;97009.53;;;10.80;100.00
20079;BME280;10199;48.850;8.924;2023-11-19T05:44:09;97000.19;;;10.78;100.00
20079;BME280;10199;48.850;8.924;2023-11-19T05:46:39;96979.66;;;10.87;100.00
20079;BME280;10199;48.850;8.924;2023-11-19T05:49:10;96891.13;;;10.21;100.00
20079;BME280;10199;48.850;8.924;2023-11-19T05:51:38;96988.38;;;10.80;100.00
20079;BME280;10199;48.850;8.924;2023-11-19T05:54:07;96997.13;;;10.74;100.00
20079;BME280;10199;48.850;8.924;2023-11-19T05:56:36;96997.72;;;10.70;100.00
20079;BME280;10199;48.850;8.924;2023-11-19T05:59:05;96913.44;;;10.12;100.00
20079;BME280;10199;48.850;8.924;2023-11-19T06:01:43;96999.97;;;10.79;100.00
20079;BME280;10199;48.850;8.924;2023-11-19T06:04:11;96995.69;;;10.78;100.00
20079;BME280;10199;48.850;8.924;2023-11-19T06:06:39;96998.78;;;10.89;100.00
20079;BME280;10199;48.850;8.924;2023-11-19T06:09:07;96991.25;;;10.85;100.00
20079;BME280;10199;48.850;8.924;2023-11-19T06:11:39;97003.06;;;10.90;100.00
20079;BME280;10199;48.850;8.924;2023-11-19T06:14:07;97020.16;;;10.94;100.00
20079;BME280;10199;48.850;8.924;2023-11-19T06:16:35;97016.50;;;10.88;100.00
20079;BME280;10199;48.850;8.924;2023-11-19T06:19:07;97012.41;;;10.85;100.00
20079;BME280;10199;48.850;8.924;2023-11-19T06:21:36;97016.31;;;10.96;100.00
20079;BME280;10199;48.850;8.924;2023-11-19T06:24:05;97014.47;;;10.90;100.00
20079;BME280;10199;48.850;8.924;2023-11-19T06:26:33;97004.09;;;11.02;100.00
20079;BME280;10199;48.850;8.924;2023-11-19T06:29:01;97015.91;;;10.99;100.00
20079;BME280;10199;48.850;8.924;2023-11-19T06:31:29;97020.59;;;10.97;100.00
20079;BME280;10199;48.850;8.924;2023-11-19T06:33:58;97011.03;;;11.03;100.00
20079;BME280;10199;48.850;8.924;2023-11-19T06:36:28;97012.25;;;11.00;100.00
20079;BME280;10199;48.850;8.924;2023-11-19T06:38:56;97024.06;;;10.98;100.00
20079;BME280;10199;48.850;8.924;2023-11-19T06:41:24;97014.50;;;11.10;100.00
20079;BME280;10199;48.850;8.924;2023-11-19T06:43:52;97021.03;;;11.07;100.00
20079;BME280;10199;48.850;8.924;2023-11-19T06:46:20;97014.91;;;11.00;100.00
20079;BME280;10199;48.850;8.924;2023-11-19T06:48:48;97008.16;;;10.98;100.00
20079;BME280;10199;48.850;8.924;2023-11-19T06:51:16;97006.13;;;11.00;100.00
20079;BME280;10199;48.850;8.924;2023-11-19T06:53:45;96801.25;;;9.61;100.00
20079;BME280;10199;48.850;8.924;2023-11-19T06:56:20;97012.22;;;10.87;100.00
20079;BME280;10199;48.850;8.924;2023-11-19T06:58:49;96993.28;;;10.90;100.00
20079;BME280;10199;48.850;8.924;2023-11-19T07:01:17;97005.72;;;10.90;100.00
20079;BME280;10199;48.850;8.924;2023-11-19T07:03:46;97006.31;;;10.92;100.00
20079;BME280;10199;48.850;8.924;2023-11-19T07:06:14;97011.81;;;10.90;100.00
20079;BME280;10199;48.850;8.924;2023-11-19T07:08:43;97008.56;;;10.95;100.00
20079;BME280;10199;48.850;8.924;2023-11-19T07:11:13;97013.25;;;10.99;99.66
20079;BME280;10199;48.850;8.924;2023-11-19T07:13:43;96926.22;;;10.43;99.53
20079;BME280;10199;48.850;8.924;2023-11-19T07:16:14;97025.47;;;11.00;99.31
20079;BME280;10199;48.850;8.924;2023-11-19T07:18:42;97028.53;;;10.97;99.86
20079;BME280;10199;48.850;8.924;2023-11-19T07:21:10;96845.81;;;9.77;100.00
20079;BME280;10199;48.850;8.924;2023-11-19T07:23:38;97026.25;;;10.88;99.96
20079;BME280;10199;48.850;8.924;2023-11-19T07:26:06;97036.41;;;10.84;100.00
20079;BME280;10199;48.850;8.924;2023-11-19T07:28:37;97037.63;;;10.81;100.00
20079;BME280;10199;48.850;8.924;2023-11-19T07:31:06;97036.41;;;10.84;99.56
20079;BME280;10199;48.850;8.924;2023-11-19T07:33:35;97041.50;;;10.85;98.82
20079;BME280;10199;48.850;8.924;2023-11-19T07:36:04;97043.16;;;10.87;98.97
20079;BME280;10199;48.850;8.924;2023-11-19T07:38:32;97050.06;;;10.88;98.94
20079;BME280;10199;48.850;8.924;2023-11-19T07:41:00;97020.69;;;10.69;98.65
20079;BME280;10199;48.850;8.924;2023-11-19T07:43:28;97049.69;;;10.91;98.75
20079;BME280;10199;48.850;8.924;2023-11-19T07:45:57;97063.09;;;10.89;98.54
20079;BME280;10199;48.850;8.924;2023-11-19T07:48:26;97017.59;;;10.59;98.52
20079;BME280;10199;48.850;8.924;2023-11-19T07:50:54;97070.44;;;10.94;98.00
20079;BME280;10199;48.850;8.924;2023-11-19T07:53:22;97074.50;;;10.90;98.17
20079;BME280;10199;48.850;8.924;2023-11-19T07:55:51;97067.56;;;10.89;98.63
20079;BME280;10199;48.850;8.924;2023-11-19T07:58:19;97067.78;;;10.87;99.01
20079;BME280;10199;48.850;8.924;2023-11-19T08:00:47;97076.34;;;10.89;98.71
20079;BME280;10199;48.850;8.924;2023-11-19T08:03:16;97043.13;;;10.80;98.04
20079;BME280;10199;48.850;8.924;2023-11-19T08:05:45;97075.38;;;11.03;97.73
20079;BME280;10199;48.850;8.924;2023-11-19T08:08:13;97071.91;;;11.03;97.61
20079;BME280;10199;48.850;8.924;2023-11-19T08:10:42;97063.97;;;11.03;97.53
20079;BME280;10199;48.850;8.924;2023-11-19T08:13:11;97057.78;;;11.50;95.89
20079;BME280;10199;48.850;8.924;2023-11-19T08:15:39;97074.19;;;12.91;89.83
20079;BME280;10199;48.850;8.924;2023-11-19T08:18:07;97075.38;;;13.01;87.76
20079;BME280;10199;48.850;8.924;2023-11-19T08:20:37;97079.66;;;11.78;94.03
20079;BME280;10199;48.850;8.924;2023-11-19T08:23:05;97083.25;;;11.51;94.72
20079;BME280;10199;48.850;8.924;2023-11-19T08:25:33;97085.28;;;11.42;95.40
20079;BME280;10199;48.850;8.924;2023-11-19T08:28:01;97089.44;;;11.85;94.85
20079;BME280;10199;48.850;8.924;2023-11-19T08:30:30;97082.88;;;11.74;95.04
20079;BME280;10199;48.850;8.924;2023-11-19T08:32:58;97075.38;;;12.04;91.86
20079;BME280;10199;48.850;8.924;2023-11-19T08:35:29;97065.78;;;12.09;91.45
20079;BME280;10199;48.850;8.924;2023-11-19T08:37:58;97081.91;;;12.99;87.45
20079;BME280;10199;48.850;8.924;2023-11-19T08:40:27;97085.16;;;12.30;91.04
20079;BME280;10199;48.850;8.924;2023-11-19T08:42:55;97097.81;;;12.21;91.86
20079;BME280;10199;48.850;8.924;2023-11-19T08:45:23;97091.06;;;12.45;91.15
20079;BME280;10199;48.850;8.924;2023-11-19T08:47:51;97084.50;;;12.54;89.92
20079;BME280;10199;48.850;8.924;2023-11-19T08:50:19;97088.00;;;12.35;89.53
20079;BME280;10199;48.850;8.924;2023-11-19T08:52:47;97076.41;;;12.23;90.60
20079;BME280;10199;48.850;8.924;2023-11-19T08:55:17;96958.78;;;11.77;87.35
20079;BME280;10199;48.850;8.924;2023-11-19T08:57:45;97089.19;;;12.52;86.85
20079;BME280;10199;48.850;8.924;2023-11-19T09:00:13;97081.34;;;12.84;86.06
20079;BME280;10199;48.850;8.924;2023-11-19T09:02:42;97084.00;;;13.42;82.90
20079;BME280;10199;48.850;8.924;2023-11-19T09:05:10;97093.59;;;12.85;84.93
20079;BME280;10199;48.850;8.924;2023-11-19T09:07:39;97093.47;;;12.60;85.42
20079;BME280;10199;48.850;8.924;2023-11-19T09:10:08;97078.59;;;12.52;85.91
20079;BME280;10199;48.850;8.924;2023-11-19T09:12:38;97075.13;;;12.45;86.21
20079;BME280;10199;48.850;8.924;2023-11-19T09:15:07;97082.09;;;12.33;87.88
20079;BME280;10199;48.850;8.924;2023-11-19T09:17:37;97077.19;;;12.30;87.37
20079;BME280;10199;48.850;8.924;2023-11-19T09:20:06;97080.88;;;12.29;87.52
20079;BME280;10199;48.850;8.924;2023-11-19T09:22:35;97083.34;;;12.17;89.37
20079;BME280;10199;48.850;8.924;2023-11-19T09:25:03;97084.53;;;12.34;87.86
20079;BME280;10199;48.850;8.924;2023-11-19T09:27:31;97090.06;;;12.33;88.62
20079;BME280;10199;48.850;8.924;2023-11-19T09:30:01;97084.13;;;12.31;89.17
20079;BME280;10199;48.850;8.924;2023-11-19T09:32:30;97084.94;;;13.09;85.51
20079;BME280;10199;48.850;8.924;2023-11-19T09:34:58;96991.28;;;12.37;85.31
20079;BME280;10199;48.850;8.924;2023-11-19T09:37:27;97094.78;;;13.78;82.65
20079;BME280;10199;48.850;8.924;2023-11-19T09:39:55;97076.44;;;15.06;76.52
20079;BME280;10199;48.850;8.924;2023-11-19T09:42:23;97081.19;;;14.86;77.63
20079;BME280;10199;48.850;8.924;2023-11-19T09:44:53;97077.53;;;14.62;77.41
20079;BME280;10199;48.850;8.924;2023-11-19T09:47:25;97080.00;;;14.39;78.80
20079;BME280;10199;48.850;8.924;2023-11-19T09:49:54;97074.94;;;13.81;78.99
20079;BME280;10199;48.850;8.924;2023-11-19T09:52:23;97084.22;;;13.71;79.75
20079;BME280;10199;48.850;8.924;2023-11-19T09:54:52;96943.97;;;12.34;80.92
20079;BME280;10199;48.850;8.924;2023-11-19T09:57:20;97070.28;;;13.76;79.61
20079;BME280;10199;48.850;8.924;2023-11-19T09:59:48;97074.47;;;13.27;80.30
20079;BME280;10199;48.850;8.924;2023-11-19T10:02:18;97075.34;;;13.08;82.31
20079;BME280;10199;48.850;8.924;2023-11-19T10:04:48;97066.09;;;13.62;79.97
20079;BME280;10199;48.850;8.924;2023-11-19T10:07:17;97065.34;;;13.80;80.16
20079;BME280;10199;48.850;8.924;2023-11-19T10:09:46;97059.56;;;14.14;77.24
20079;BME280;10199;48.850;8.924;2023-11-19T10:12:14;97053.66;;;14.55;77.68
20079;BME280;10199;48.850;8.924;2023-11-19T10:14:44;97052.09;;;14.23;76.61
20079;BME280;10199;48.850;8.924;2023-11-19T10:17:13;97050.31;;;14.17;76.74
20079;BME280;10199;48.850;8.924;2023-11-19T10:19:41;97045.63;;;13.94;77.34
20079;BME280;10199;48.850;8.924;2023-11-19T10:22:11;97052.97;;;14.17;76.72
20079;BME280;10199;48.850;8.924;2023-11-19T10:24:41;96990.19;;;14.34;75.80
20079;BME280;10199;48.850;8.924;2023-11-19T10:27:09;97038.72;;;14.54;77.29
20079;BME280;10199;48.850;8.924;2023-11-19T10:29:37;96964.97;;;14.18;75.66
20079;BME280;10199;48.850;8.924;2023-11-19T10:32:05;97035.47;;;14.89;74.78
20079;BME280;10199;48.850;8.924;2023-11-19T10:34:34;97028.69;;;14.75;73.60
20079;BME280;10199;48.850;8.924;2023-11-19T10:37:04;97033.84;;;14.70;73.07
20079;BME280;10199;48.850;8.924;2023-11-19T10:39:51;97032.06;;;14.45;72.39
20079;BME280;10199;48.850;8.924;2023-11-19T10:42:21;97035.91;;;14.68;73.81
20079;BME280;10199;48.850;8.924;2023-11-19T10:44:49;97028.38;;;14.83;74.42
20079;BME280;10199;48.850;8.924;2023-11-19T10:47:19;97041.97;;;14.56;72.55
20079;BME280;10199;48.850;8.924;2023-11-19T10:50:03;97029.25;;;14.58;72.61
20079;BME280;10199;48.850;8.924;2023-11-19T10:52:33;97038.22;;;14.82;73.18
20079;BME280;10199;48.850;8.924;2023-11-19T10:55:07;97036.13;;;15.03;72.92
20079;BME280;10199;48.850;8.924;2023-11-19T10:57:36;97038.66;;;14.79;72.27
20079;BME280;10199;48.850;8.924;2023-11-19T11:00:08;96942.59;;;13.64;74.25
20079;BME280;10199;48.850;8.924;2023-11-19T11:02:41;97019.88;;;13.63;75.43
20079;BME280;10199;48.850;8.924;2023-11-19T11:05:10;97054.22;;;13.64;75.15
20079;BME280;10199;48.850;8.924;2023-11-19T11:07:40;96965.78;;;13.26;75.89
20079;BME280;10199;48.850;8.924;2023-11-19T11:10:11;97056.81;;;13.71;75.27
20079;BME280;10199;48.850;8.924;2023-11-19T11:12:41;97057.41;;;13.73;75.42
20079;BME280;10199;48.850;8.924;2023-11-19T11:15:11;97061.56;;;14.19;74.29
20079;BME280;10199;48.850;8.924;2023-11-19T11:17:41;96972.28;;;14.05;73.27
20079;BME280;10199;48.850;8.924;2023-11-19T11:20:10;97029.34;;;14.27;73.34
20079;BME280;10199;48.850;8.924;2023-11-19T11:22:47;97044.88;;;14.30;73.57
20079;BME280;10199;48.850;8.924;2023-11-19T11:25:33;97037.97;;;14.47;71.81
20079;BME280;10199;48.850;8.924;2023-11-19T11:28:13;96916.59;;;13.66;72.41
20079;BME280;10199;48.850;8.924;2023-11-19T11:31:00;97040.88;;;14.82;72.21
20079;BME280;10199;48.850;8.924;2023-11-19T11:33:44;97018.22;;;14.73;71.93
20079;BME280;10199;48.850;8.924;2023-11-19T11:36:24;97029.69;;;14.92;70.98
20079;BME280;10199;48.850;8.924;2023-11-19T11:38:53;97022.84;;;15.14;70.85
20079;BME280;10199;48.850;8.924;2023-11-19T11:41:24;97014.00;;;14.65;72.29
20079;BME280;10199;48.850;8.924;2023-11-19T11:43:53;97023.31;;;15.11;71.47
20079;BME280;10199;48.850;8.924;2023-11-19T11:46:56;97014.00;;;15.02;70.89
20079;BME280;10199;48.850;8.924;2023-11-19T11:49:28;97019.31;;;15.32;71.39
20079;BME280;10199;48.850;8.924;2023-11-19T11:52:01;96908.28;;;14.36;71.04
20079;BME280;10199;48.850;8.924;2023-11-19T11:54:31;97012.28;;;15.08;70.61
20079;BME280;10199;48.850;8.924;2023-11-19T11:57:12;97010.47;;;14.90;70.49
20079;BME280;10199;48.850;8.924;2023-11-19T11:59:45;97020.22;;;14.59;71.16
20079;BME280;10199;48.850;8.924;2023-11-19T12:02:15;97032.59;;;14.54;72.09
20079;BME280;10199;48.850;8.924;2023-11-19T12:04:47;97028.75;;;14.25;72.79
20079;BME280;10199;48.850;8.924;2023-11-19T12:07:17;97028.81;;;14.80;71.03
20079;BME280;10199;48.850;8.924;2023-11-19T12:09:52;97011.66;;;14.57;71.18
20079;BME280;10199;48.850;8.924;2023-11-19T12:12:23;97033.97;;;15.11;70.41
20079;BME280;10199;48.850;8.924;2023-11-19T12:15:01;96987.91;;;14.56;70.34
20079;BME280;10199;48.850;8.924;2023-11-19T12:17:41;97027.56;;;14.64;68.97
20079;BME280;10199;48.850;8.924;2023-11-19T12:20:11;96976.97;;;14.64;67.90
20079;BME280;10199;48.850;8.924;2023-11-19T12:22:41;97009.25;;;15.04;67.35
20079;BME280;10199;48.850;8.924;2023-11-19T12:25:10;96994.22;;;15.10;65.72
20079;BME280;10199;48.850;8.924;2023-11-19T12:27:41;96994.19;;;14.98;68.34
20079;BME280;10199;48.850;8.924;2023-11-19T12:30:10;96983.25;;;14.88;66.47
20079;BME280;10199;48.850;8.924;2023-11-19T12:32:39;96953.91;;;14.76;66.40
20079;BME280;10199;48.850;8.924;2023-11-19T12:35:08;96976.44;;;15.34;65.51
20079;BME280;10199;48.850;8.924;2023-11-19T12:37:39;96983.94;;;15.13;66.00
20079;BME280;10199;48.850;8.924;2023-11-19T12:40:15;96984.09;;;15.30;65.82
20079;BME280;10199;48.850;8.924;2023-11-19T12:42:45;96863.50;;;14.51;65.36
20079;BME280;10199;48.850;8.924;2023-11-19T12:45:15;96991.69;;;14.85;64.81
20079;BME280;10199;48.850;8.924;2023-11-19T12:47:43;96987.63;;;15.12;65.34
20079;BME280;10199;48.850;8.924;2023-11-19T12:50:14;96911.72;;;14.73;64.96
20079;BME280;10199;48.850;8.924;2023-11-19T12:52:55;96981.84;;;14.85;65.55
20079;BME280;10199;48.850;8.924;2023-11-19T12:55:27;96981.50;;;14.82;65.99
20079;BME280;10199;48.850;8.924;2023-11-19T12:57:57;96992.69;;;15.02;65.52
20079;BME280;10199;48.850;8.924;2023-11-19T13:00:27;96948.00;;;14.74;64.10
20079;BME280;10199;48.850;8.924;2023-11-19T13:02:56;96982.97;;;15.08;63.90
20079;BME280;10199;48.850;8.924;2023-11-19T13:05:27;97002.56;;;14.83;64.59
20079;BME280;10199;48.850;8.924;2023-11-19T13:08:00;96987.84;;;15.11;63.86
20079;BME280;10199;48.850;8.924;2023-11-19T13:10:29;96917.47;;;14.22;66.02